sensor_id;sensor_type;location;lat;lon;timestamp;temperature;humidity
30097;DHT22;16915;51.466;3.610;2022-08-19T00:01:34;18.60;99.90
30097;DHT22;16915;51.466;3.610;2022-08-19T00:04:02;18.60;99.90
30097;DHT22;16915;51.466;3.610;2022-08-19T00:06:29;18.60;99.90
30097;DHT22;16915;51.466;3.610;2022-08-19T00:08:56;18.50;99.90
30097;DHT22;16915;51.466;3.610;2022-08-19T00:11:22;18.50;99.90
30097;DHT22;16915;51.466;3.610;2022-08-19T00:13:47;18.40;99.90
30097;DHT22;16915;51.466;3.610;2022-08-19T00:16:16;18.40;99.90
30097;DHT22;16915;51.466;3.610;2022-08-19T00:18:43;18.40;99.90
30097;DHT22;16915;51.466;3.610;2022-08-19T00:21:09;18.30;99.90
30097;DHT22;16915;51.466;3.610;2022-08-19T00:23:35;18.30;99.90
30097;DHT22;16915;51.466;3.610;2022-08-19T00:26:05;18.30;99.90
30097;DHT22;16915;51.466;3.610;2022-08-19T00:28:32;18.30;99.90
30097;DHT22;16915;51.466;3.610;2022-08-19T00:30:59;18.30;99.90
30097;DHT22;16915;51.466;3.610;2022-08-19T00:33:25;18.20;99.90
30097;DHT22;16915;51.466;3.610;2022-08-19T00:35:50;18.20;99.90
30097;DHT22;16915;51.466;3.610;2022-08-19T00:38:16;18.20;99.90
30097;DHT22;16915;51.466;3.610;2022-08-19T00:40:45;18.10;99.90
30097;DHT22;16915;51.466;3.610;2022-08-19T00:43:19;18.10;99.90
30097;DHT22;16915;51.466;3.610;2022-08-19T00:45:45;18.10;99.90
30097;DHT22;16915;51.466;3.610;2022-08-19T00:48:11;18.10;99.90
30097;DHT22;16915;51.466;3.610;2022-08-19T00:50:39;18.10;99.90
30097;DHT22;16915;51.466;3.610;2022-08-19T00:53:06;18.00;99.90
30097;DHT22;16915;51.466;3.610;2022-08-19T00:55:32;18.00;99.90
30097;DHT22;16915;51.466;3.610;2022-08-19T00:58:02;17.90;99.90
30097;DHT22;16915;51.466;3.610;2022-08-19T01:00:31;17.80;99.90
30097;DHT22;16915;51.466;3.610;2022-08-19T01:02:57;17.80;99.90
30097;DHT22;16915;51.466;3.610;2022-08-19T01:05:26;17.80;99.90
30097;DHT22;16915;51.466;3.610;2022-08-19T01:07:54;17.80;99.90
30097;DHT22;16915;51.466;3.610;2022-08-19T01:10:25;17.80;99.90
30097;DHT22;16915;51.466;3.610;2022-08-19T01:12:51;17.80;99.90
30097;DHT22;16915;51.466;3.610;2022-08-19T01:15:21;17.80;99.90
30097;DHT22;16915;51.466;3.610;2022-08-19T01:17:48;17.80;99.90
30097;DHT22;16915;51.466;3.610;2022-08-19T01:20:19;17.70;99.90
30097;DHT22;16915;51.466;3.610;2022-08-19T01:22:48;17.70;99.90
30097;DHT22;16915;51.466;3.610;2022-08-19T01:25:16;17.80;99.90
30097;DHT22;16915;51.466;3.610;2022-08-19T01:27:46;17.70;99.90
30097;DHT22;16915;51.466;3.610;2022-08-19T01:30:16;17.70;99.90
30097;DHT22;16915;51.466;3.610;2022-08-19T01:32:42;17.70;99.90
30097;DHT22;16915;51.466;3.610;2022-08-19T01:35:09;17.70;99.90
30097;DHT22;16915;51.466;3.610;2022-08-19T01:38:03;17.70;99.90
30097;DHT22;16915;51.466;3.610;2022-08-19T01:40:33;17.60;99.90
30097;DHT22;16915;51.466;3.610;2022-08-19T01:43:00;17.60;99.90
30097;DHT22;16915;51.466;3.610;2022-08-19T01:45:28;17.60;99.90
30097;DHT22;16915;51.466;3.610;2022-08-19T01:47:54;17.50;99.90
30097;DHT22;16915;51.466;3.610;2022-08-19T01:50:20;17.50;99.90
30097;DHT22;16915;51.466;3.610;2022-08-19T01:52:46;17.50;99.90
30097;DHT22;16915;51.466;3.610;2022-08-19T01:55:15;17.40;99.90
30097;DHT22;16915;51.466;3.610;2022-08-19T01:57:46;17.40;99.90
30097;DHT22;16915;51.466;3.610;2022-08-19T02:00:14;17.40;99.90
30097;DHT22;16915;51.466;3.610;2022-08-19T02:02:41;17.40;99.90
30097;DHT22;16915;51.466;3.610;2022-08-19T02:05:07;17.40;99.90
30097;DHT22;16915;51.466;3.610;2022-08-19T02:07:36;17.40;99.90
30097;DHT22;16915;51.466;3.610;2022-08-19T02:10:08;17.40;99.90
30097;DHT22;16915;51.466;3.610;2022-08-19T02:12:34;17.40;99.90
30097;DHT22;16915;51.466;3.610;2022-08-19T02:15:01;17.40;99.90
30097;DHT22;16915;51.466;3.610;2022-08-19T02:17:28;17.40;99.90
30097;DHT22;16915;51.466;3.610;2022-08-19T02:19:54;17.40;99.90
30097;DHT22;16915;51.466;3.610;2022-08-19T02:22:20;17.50;99.90
30097;DHT22;16915;51.466;3.610;2022-08-19T02:24:46;17.50;99.90
30097;DHT22;16915;51.466;3.610;2022-08-19T02:27:14;17.50;99.90
30097;DHT22;16915;51.466;3.610;2022-08-19T02:29:40;17.60;99.90
30097;DHT22;16915;51.466;3.610;2022-08-19T02:32:07;17.60;99.90
30097;DHT22;16915;51.466;3.610;2022-08-19T02:34:34;17.60;99.90
30097;DHT22;16915;51.466;3.610;2022-08-19T02:37:00;17.60;99.90
30097;DHT22;16915;51.466;3.610;2022-08-19T02:39:25;17.60;99.90
30097;DHT22;16915;51.466;3.610;2022-08-19T02:41:52;17.70;99.90
30097;DHT22;16915;51.466;3.610;2022-08-19T02:44:17;17.70;99.90
30097;DHT22;16915;51.466;3.610;2022-08-19T02:46:47;17.70;99.90
30097;DHT22;16915;51.466;3.610;2022-08-19T02:49:15;17.70;99.90
30097;DHT22;16915;51.466;3.610;2022-08-19T02:51:44;17.70;99.90
30097;DHT22;16915;51.466;3.610;2022-08-19T02:54:12;17.60;99.90
30097;DHT22;16915;51.466;3.610;2022-08-19T02:56:39;17.60;99.90
30097;DHT22;16915;51.466;3.610;2022-08-19T02:59:07;17.50;99.90
30097;DHT22;16915;51.466;3.610;2022-08-19T03:01:37;17.50;99.90
30097;DHT22;16915;51.466;3.610;2022-08-19T03:04:08;17.40;99.90
30097;DHT22;16915;51.466;3.610;2022-08-19T03:06:40;17.30;99.90
30097;DHT22;16915;51.466;3.610;2022-08-19T03:09:07;17.40;99.90
30097;DHT22;16915;51.466;3.610;2022-08-19T03:11:33;17.40;99.90
30097;DHT22;16915;51.466;3.610;2022-08-19T03:14:00;17.30;99.90
30097;DHT22;16915;51.466;3.610;2022-08-19T03:16:27;17.30;99.90
30097;DHT22;16915;51.466;3.610;2022-08-19T03:18:57;17.30;99.90
30097;DHT22;16915;51.466;3.610;2022-08-19T03:21:27;17.30;99.90
30097;DHT22;16915;51.466;3.610;2022-08-19T03:23:58;17.30;99.90
30097;DHT22;16915;51.466;3.610;2022-08-19T03:26:24;17.30;99.90
30097;DHT22;16915;51.466;3.610;2022-08-19T03:28:49;17.30;99.90
30097;DHT22;16915;51.466;3.610;2022-08-19T03:31:18;17.30;99.90
30097;DHT22;16915;51.466;3.610;2022-08-19T03:33:45;17.40;99.90
30097;DHT22;16915;51.466;3.610;2022-08-19T03:36:13;17.40;99.90
30097;DHT22;16915;51.466;3.610;2022-08-19T03:38:42;17.50;99.90
30097;DHT22;16915;51.466;3.610;2022-08-19T03:41:11;17.40;99.90
30097;DHT22;16915;51.466;3.610;2022-08-19T03:43:39;17.50;99.90
30097;DHT22;16915;51.466;3.610;2022-08-19T03:46:08;17.50;99.90
30097;DHT22;16915;51.466;3.610;2022-08-19T03:48:35;17.40;99.90
30097;DHT22;16915;51.466;3.610;2022-08-19T03:51:02;17.40;99.90
30097;DHT22;16915;51.466;3.610;2022-08-19T03:53:29;17.40;99.90
30097;DHT22;16915;51.466;3.610;2022-08-19T03:55:56;17.40;99.90
30097;DHT22;16915;51.466;3.610;2022-08-19T03:58:25;17.40;99.90
30097;DHT22;16915;51.466;3.610;2022-08-19T04:00:51;17.40;99.90
30097;DHT22;16915;51.466;3.610;2022-08-19T04:03:16;17.40;99.90
30097;DHT22;16915;51.466;3.610;2022-08-19T04:05:44;17.30;99.90
30097;DHT22;16915;51.466;3.610;2022-08-19T04:08:10;17.30;99.90
30097;DHT22;16915;51.466;3.610;2022-08-19T04:10:36;17.20;99.90
30097;DHT22;16915;51.466;3.610;2022-08-19T04:13:03;17.20;99.90
30097;DHT22;16915;51.466;3.610;2022-08-19T04:15:31;17.20;99.90
30097;DHT22;16915;51.466;3.610;2022-08-19T04:18:01;17.20;99.90
30097;DHT22;16915;51.466;3.610;2022-08-19T04:20:27;17.20;99.90
30097;DHT22;16915;51.466;3.610;2022-08-19T04:22:53;17.20;99.90
30097;DHT22;16915;51.466;3.610;2022-08-19T04:25:18;17.20;99.90
30097;DHT22;16915;51.466;3.610;2022-08-19T04:27:44;17.20;99.90
30097;DHT22;16915;51.466;3.610;2022-08-19T04:30:13;17.10;99.90
30097;DHT22;16915;51.466;3.610;2022-08-19T04:32:38;17.20;99.90
30097;DHT22;16915;51.466;3.610;2022-08-19T04:35:04;17.20;99.90
30097;DHT22;16915;51.466;3.610;2022-08-19T04:37:30;17.20;99.90
30097;DHT22;16915;51.466;3.610;2022-08-19T04:39:59;17.30;99.90
30097;DHT22;16915;51.466;3.610;2022-08-19T04:42:44;17.20;99.90
30097;DHT22;16915;51.466;3.610;2022-08-19T04:45:14;17.30;99.90
30097;DHT22;16915;51.466;3.610;2022-08-19T04:47:41;17.40;99.90
30097;DHT22;16915;51.466;3.610;2022-08-19T04:50:07;17.40;99.90
30097;DHT22;16915;51.466;3.610;2022-08-19T04:52:34;17.40;99.90
30097;DHT22;16915;51.466;3.610;2022-08-19T04:55:00;17.50;99.90
30097;DHT22;16915;51.466;3.610;2022-08-19T04:57:25;17.50;99.90
30097;DHT22;16915;51.466;3.610;2022-08-19T04:59:55;17.50;99.90
30097;DHT22;16915;51.466;3.610;2022-08-19T05:02:21;17.60;99.90
30097;DHT22;16915;51.466;3.610;2022-08-19T05:04:55;17.60;99.90
30097;DHT22;16915;51.466;3.610;2022-08-19T05:07:21;17.60;99.90
30097;DHT22;16915;51.466;3.610;2022-08-19T05:09:47;17.60;99.90
30097;DHT22;16915;51.466;3.610;2022-08-19T05:12:12;17.60;99.90
30097;DHT22;16915;51.466;3.610;2022-08-19T05:14:38;17.50;99.90
30097;DHT22;16915;51.466;3.610;2022-08-19T05:17:03;17.50;99.90
30097;DHT22;16915;51.466;3.610;2022-08-19T05:19:29;17.50;99.90
30097;DHT22;16915;51.466;3.610;2022-08-19T05:22:30;17.50;99.90
30097;DHT22;16915;51.466;3.610;2022-08-19T05:25:14;17.60;99.90
30097;DHT22;16915;51.466;3.610;2022-08-19T05:27:43;17.60;99.90
30097;DHT22;16915;51.466;3.610;2022-08-19T05:30:10;17.60;99.90
30097;DHT22;16915;51.466;3.610;2022-08-19T05:32:36;17.60;99.90
30097;DHT22;16915;51.466;3.610;2022-08-19T05:35:04;17.60;99.90
30097;DHT22;16915;51.466;3.610;2022-08-19T05:37:30;17.70;99.90
30097;DHT22;16915;51.466;3.610;2022-08-19T05:39:57;17.70;99.90
30097;DHT22;16915;51.466;3.610;2022-08-19T05:42:23;17.80;99.90
30097;DHT22;16915;51.466;3.610;2022-08-19T05:44:49;17.80;99.90
30097;DHT22;16915;51.466;3.610;2022-08-19T05:47:16;17.90;99.90
30097;DHT22;16915;51.466;3.610;2022-08-19T05:49:43;18.00;99.90
30097;DHT22;16915;51.466;3.610;2022-08-19T05:52:12;18.10;99.90
30097;DHT22;16915;51.466;3.610;2022-08-19T05:54:39;18.20;99.90
30097;DHT22;16915;51.466;3.610;2022-08-19T05:57:08;18.20;99.90
30097;DHT22;16915;51.466;3.610;2022-08-19T05:59:34;18.30;99.90
30097;DHT22;16915;51.466;3.610;2022-08-19T06:02:02;18.40;99.90
30097;DHT22;16915;51.466;3.610;2022-08-19T06:04:27;18.40;99.90
30097;DHT22;16915;51.466;3.610;2022-08-19T06:06:54;18.40;99.90
30097;DHT22;16915;51.466;3.610;2022-08-19T06:09:21;18.50;99.90
30097;DHT22;16915;51.466;3.610;2022-08-19T06:11:52;18.50;99.90
30097;DHT22;16915;51.466;3.610;2022-08-19T06:14:24;18.60;99.90
30097;DHT22;16915;51.466;3.610;2022-08-19T06:16:50;18.60;99.90
30097;DHT22;16915;51.466;3.610;2022-08-19T06:19:24;18.70;99.90
30097;DHT22;16915;51.466;3.610;2022-08-19T06:21:50;18.80;99.90
30097;DHT22;16915;51.466;3.610;2022-08-19T06:24:20;18.90;99.90
30097;DHT22;16915;51.466;3.610;2022-08-19T06:26:51;19.00;99.90
30097;DHT22;16915;51.466;3.610;2022-08-19T06:29:19;19.00;99.90
30097;DHT22;16915;51.466;3.610;2022-08-19T06:31:48;19.00;99.90
30097;DHT22;16915;51.466;3.610;2022-08-19T06:34:17;19.10;99.90
30097;DHT22;16915;51.466;3.610;2022-08-19T06:36:49;19.10;99.90
30097;DHT22;16915;51.466;3.610;2022-08-19T06:39:28;19.10;99.90
30097;DHT22;16915;51.466;3.610;2022-08-19T06:41:59;19.10;99.90
30097;DHT22;16915;51.466;3.610;2022-08-19T06:44:27;19.20;99.90
30097;DHT22;16915;51.466;3.610;2022-08-19T06:46:54;19.40;99.90
30097;DHT22;16915;51.466;3.610;2022-08-19T06:49:20;19.60;99.90
30097;DHT22;16915;51.466;3.610;2022-08-19T06:51:48;19.70;99.90
30097;DHT22;16915;51.466;3.610;2022-08-19T06:54:15;19.90;99.90
30097;DHT22;16915;51.466;3.610;2022-08-19T06:56:41;20.10;99.90
30097;DHT22;16915;51.466;3.610;2022-08-19T06:59:10;20.10;99.90
30097;DHT22;16915;51.466;3.610;2022-08-19T07:01:42;20.00;99.90
30097;DHT22;16915;51.466;3.610;2022-08-19T07:04:11;20.00;99.90
30097;DHT22;16915;51.466;3.610;2022-08-19T07:06:40;20.00;99.90
30097;DHT22;16915;51.466;3.610;2022-08-19T07:09:08;20.20;99.90
30097;DHT22;16915;51.466;3.610;2022-08-19T07:11:34;20.40;99.90
30097;DHT22;16915;51.466;3.610;2022-08-19T07:14:01;20.70;99.90
30097;DHT22;16915;51.466;3.610;2022-08-19T07:16:28;20.90;99.90
30097;DHT22;16915;51.466;3.610;2022-08-19T07:19:00;21.00;99.90
30097;DHT22;16915;51.466;3.610;2022-08-19T07:21:27;21.10;99.90
30097;DHT22;16915;51.466;3.610;2022-08-19T07:23:54;21.20;99.90
30097;DHT22;16915;51.466;3.610;2022-08-19T07:26:29;21.30;99.90
30097;DHT22;16915;51.466;3.610;2022-08-19T07:28:56;21.40;99.90
30097;DHT22;16915;51.466;3.610;2022-08-19T07:31:24;21.40;99.90
30097;DHT22;16915;51.466;3.610;2022-08-19T07:33:51;21.40;99.90
30097;DHT22;16915;51.466;3.610;2022-08-19T07:36:20;21.40;99.90
30097;DHT22;16915;51.466;3.610;2022-08-19T07:38:48;21.40;99.90
30097;DHT22;16915;51.466;3.610;2022-08-19T07:41:18;21.40;99.90
30097;DHT22;16915;51.466;3.610;2022-08-19T07:43:44;21.30;99.90
30097;DHT22;16915;51.466;3.610;2022-08-19T07:46:11;21.30;99.90
30097;DHT22;16915;51.466;3.610;2022-08-19T07:48:40;21.20;99.90
30097;DHT22;16915;51.466;3.610;2022-08-19T07:51:07;21.30;99.90
30097;DHT22;16915;51.466;3.610;2022-08-19T07:53:35;21.40;99.90
30097;DHT22;16915;51.466;3.610;2022-08-19T07:56:01;21.50;99.90
30097;DHT22;16915;51.466;3.610;2022-08-19T07:58:31;21.70;99.90
30097;DHT22;16915;51.466;3.610;2022-08-19T08:00:57;22.10;99.90
30097;DHT22;16915;51.466;3.610;2022-08-19T08:03:23;22.30;99.90
30097;DHT22;16915;51.466;3.610;2022-08-19T08:06:09;22.30;99.90
30097;DHT22;16915;51.466;3.610;2022-08-19T08:08:53;22.10;99.90
30097;DHT22;16915;51.466;3.610;2022-08-19T08:11:45;22.00;99.90
30097;DHT22;16915;51.466;3.610;2022-08-19T08:14:25;21.80;99.90
30097;DHT22;16915;51.466;3.610;2022-08-19T08:16:53;21.70;99.90
30097;DHT22;16915;51.466;3.610;2022-08-19T08:19:21;21.70;99.90
30097;DHT22;16915;51.466;3.610;2022-08-19T08:21:47;21.80;99.90
30097;DHT22;16915;51.466;3.610;2022-08-19T08:24:15;21.90;99.90
30097;DHT22;16915;51.466;3.610;2022-08-19T08:26:42;22.00;99.90
30097;DHT22;16915;51.466;3.610;2022-08-19T08:29:10;22.00;99.90
30097;DHT22;16915;51.466;3.610;2022-08-19T08:31:40;22.00;99.90
30097;DHT22;16915;51.466;3.610;2022-08-19T08:34:06;21.80;99.90
30097;DHT22;16915;51.466;3.610;2022-08-19T08:36:32;21.70;99.90
30097;DHT22;16915;51.466;3.610;2022-08-19T08:38:59;21.60;99.90
30097;DHT22;16915;51.466;3.610;2022-08-19T08:44:37;21.60;99.90
30097;DHT22;16915;51.466;3.610;2022-08-19T08:47:12;21.60;99.90
30097;DHT22;16915;51.466;3.610;2022-08-19T08:52:13;21.60;99.90
30097;DHT22;16915;51.466;3.610;2022-08-19T08:54:45;21.50;99.90
30097;DHT22;16915;51.466;3.610;2022-08-19T08:57:15;21.70;99.90
30097;DHT22;16915;51.466;3.610;2022-08-19T08:59:45;21.90;99.90
30097;DHT22;16915;51.466;3.610;2022-08-19T09:02:16;22.20;99.90
30097;DHT22;16915;51.466;3.610;2022-08-19T09:04:42;22.50;99.90
30097;DHT22;16915;51.466;3.610;2022-08-19T09:09:51;23.20;99.90
30097;DHT22;16915;51.466;3.610;2022-08-19T09:14:58;23.40;99.90
30097;DHT22;16915;51.466;3.610;2022-08-19T09:17:29;23.50;99.90
30097;DHT22;16915;51.466;3.610;2022-08-19T09:22:37;23.50;99.90
30097;DHT22;16915;51.466;3.610;2022-08-19T09:25:05;23.70;99.90
30097;DHT22;16915;51.466;3.610;2022-08-19T09:27:31;24.00;99.90
30097;DHT22;16915;51.466;3.610;2022-08-19T09:29:58;24.30;99.90
30097;DHT22;16915;51.466;3.610;2022-08-19T09:32:24;24.30;99.90
30097;DHT22;16915;51.466;3.610;2022-08-19T09:34:53;24.30;99.90
30097;DHT22;16915;51.466;3.610;2022-08-19T09:37:24;24.10;99.90
30097;DHT22;16915;51.466;3.610;2022-08-19T09:39:50;24.10;99.90
30097;DHT22;16915;51.466;3.610;2022-08-19T09:42:16;24.10;99.90
30097;DHT22;16915;51.466;3.610;2022-08-19T09:44:44;24.10;99.90
30097;DHT22;16915;51.466;3.610;2022-08-19T09:47:12;23.90;99.90
30097;DHT22;16915;51.466;3.610;2022-08-19T09:49:39;23.80;99.90
30097;DHT22;16915;51.466;3.610;2022-08-19T09:52:09;23.80;99.90
30097;DHT22;16915;51.466;3.610;2022-08-19T09:54:37;23.80;99.90
30097;DHT22;16915;51.466;3.610;2022-08-19T09:57:03;23.80;99.90
30097;DHT22;16915;51.466;3.610;2022-08-19T09:59:29;23.70;99.90
30097;DHT22;16915;51.466;3.610;2022-08-19T10:01:55;23.70;99.90
30097;DHT22;16915;51.466;3.610;2022-08-19T10:04:21;23.50;99.90
30097;DHT22;16915;51.466;3.610;2022-08-19T10:06:49;23.40;99.90
30097;DHT22;16915;51.466;3.610;2022-08-19T10:09:16;23.30;99.90
30097;DHT22;16915;51.466;3.610;2022-08-19T10:11:44;23.20;99.90
30097;DHT22;16915;51.466;3.610;2022-08-19T10:14:15;23.10;99.90
30097;DHT22;16915;51.466;3.610;2022-08-19T10:16:42;23.00;99.90
30097;DHT22;16915;51.466;3.610;2022-08-19T10:19:08;23.10;99.90
30097;DHT22;16915;51.466;3.610;2022-08-19T10:21:35;23.40;99.90
30097;DHT22;16915;51.466;3.610;2022-08-19T10:24:02;23.80;99.90
30097;DHT22;16915;51.466;3.610;2022-08-19T10:26:31;24.30;99.90
30097;DHT22;16915;51.466;3.610;2022-08-19T10:28:57;24.80;99.90
30097;DHT22;16915;51.466;3.610;2022-08-19T10:31:28;25.20;99.90
30097;DHT22;16915;51.466;3.610;2022-08-19T10:33:55;25.30;99.90
30097;DHT22;16915;51.466;3.610;2022-08-19T10:36:26;25.30;99.90
30097;DHT22;16915;51.466;3.610;2022-08-19T10:38:54;25.30;99.90
30097;DHT22;16915;51.466;3.610;2022-08-19T10:41:24;25.40;99.90
30097;DHT22;16915;51.466;3.610;2022-08-19T10:43:54;25.40;99.90
30097;DHT22;16915;51.466;3.610;2022-08-19T10:46:22;25.30;99.90
30097;DHT22;16915;51.466;3.610;2022-08-19T10:48:50;25.10;99.90
30097;DHT22;16915;51.466;3.610;2022-08-19T10:51:16;25.10;99.90
30097;DHT22;16915;51.466;3.610;2022-08-19T10:54:01;25.10;99.90
30097;DHT22;16915;51.466;3.610;2022-08-19T10:56:27;25.30;99.90
30097;DHT22;16915;51.466;3.610;2022-08-19T10:59:14;25.40;99.90
30097;DHT22;16915;51.466;3.610;2022-08-19T11:01:42;25.70;99.90
30097;DHT22;16915;51.466;3.610;2022-08-19T11:04:08;26.10;99.90
30097;DHT22;16915;51.466;3.610;2022-08-19T11:06:40;26.60;99.90
30097;DHT22;16915;51.466;3.610;2022-08-19T11:09:08;26.80;99.90
30097;DHT22;16915;51.466;3.610;2022-08-19T11:11:35;27.00;99.90
30097;DHT22;16915;51.466;3.610;2022-08-19T11:14:13;26.90;99.90
30097;DHT22;16915;51.466;3.610;2022-08-19T11:16:40;26.90;99.90
30097;DHT22;16915;51.466;3.610;2022-08-19T11:19:09;26.90;99.90
30097;DHT22;16915;51.466;3.610;2022-08-19T11:21:41;26.80;99.90
30097;DHT22;16915;51.466;3.610;2022-08-19T11:24:10;26.60;99.90
30097;DHT22;16915;51.466;3.610;2022-08-19T11:26:37;26.40;99.90
30097;DHT22;16915;51.466;3.610;2022-08-19T11:29:04;26.20;99.90
30097;DHT22;16915;51.466;3.610;2022-08-19T11:31:33;26.10;99.90
30097;DHT22;16915;51.466;3.610;2022-08-19T11:34:00;26.20;99.90
30097;DHT22;16915;51.466;3.610;2022-08-19T11:36:27;26.10;99.90
30097;DHT22;16915;51.466;3.610;2022-08-19T11:38:54;26.20;99.90
30097;DHT22;16915;51.466;3.610;2022-08-19T11:41:22;26.10;99.90
30097;DHT22;16915;51.466;3.610;2022-08-19T11:43:49;26.00;99.90
30097;DHT22;16915;51.466;3.610;2022-08-19T11:46:16;25.90;99.90
30097;DHT22;16915;51.466;3.610;2022-08-19T11:48:42;25.90;99.90
30097;DHT22;16915;51.466;3.610;2022-08-19T11:51:13;25.90;99.90
30097;DHT22;16915;51.466;3.610;2022-08-19T11:53:40;25.80;99.90
30097;DHT22;16915;51.466;3.610;2022-08-19T11:56:08;26.50;99.90
30097;DHT22;16915;51.466;3.610;2022-08-19T11:58:34;27.40;99.90
30097;DHT22;16915;51.466;3.610;2022-08-19T12:01:00;27.80;99.90
30097;DHT22;16915;51.466;3.610;2022-08-19T12:03:25;28.20;99.90
30097;DHT22;16915;51.466;3.610;2022-08-19T12:05:51;28.30;99.90
30097;DHT22;16915;51.466;3.610;2022-08-19T12:08:18;28.40;99.90
30097;DHT22;16915;51.466;3.610;2022-08-19T12:10:44;28.30;99.90
30097;DHT22;16915;51.466;3.610;2022-08-19T12:13:11;28.30;99.90
30097;DHT22;16915;51.466;3.610;2022-08-19T12:15:38;28.30;99.90
30097;DHT22;16915;51.466;3.610;2022-08-19T12:18:07;28.60;99.90
30097;DHT22;16915;51.466;3.610;2022-08-19T12:20:38;28.90;99.90
30097;DHT22;16915;51.466;3.610;2022-08-19T12:23:07;29.20;99.90
30097;DHT22;16915;51.466;3.610;2022-08-19T12:25:34;29.00;99.90
30097;DHT22;16915;51.466;3.610;2022-08-19T12:28:02;28.60;99.90
30097;DHT22;16915;51.466;3.610;2022-08-19T12:30:28;28.70;99.90
30097;DHT22;16915;51.466;3.610;2022-08-19T12:32:54;29.50;99.90
30097;DHT22;16915;51.466;3.610;2022-08-19T12:35:20;30.60;99.90
30097;DHT22;16915;51.466;3.610;2022-08-19T12:37:48;31.00;99.90
30097;DHT22;16915;51.466;3.610;2022-08-19T12:40:15;31.00;99.90
30097;DHT22;16915;51.466;3.610;2022-08-19T12:42:41;30.50;99.90
30097;DHT22;16915;51.466;3.610;2022-08-19T12:45:13;30.10;99.90
30097;DHT22;16915;51.466;3.610;2022-08-19T12:47:39;29.60;99.90
30097;DHT22;16915;51.466;3.610;2022-08-19T12:50:07;29.30;99.90
30097;DHT22;16915;51.466;3.610;2022-08-19T12:52:37;28.80;99.90
30097;DHT22;16915;51.466;3.610;2022-08-19T12:55:05;28.80;99.90
30097;DHT22;16915;51.466;3.610;2022-08-19T12:57:32;28.80;99.90
30097;DHT22;16915;51.466;3.610;2022-08-19T13:00:16;29.20;99.90
30097;DHT22;16915;51.466;3.610;2022-08-19T13:02:46;29.50;99.90
30097;DHT22;16915;51.466;3.610;2022-08-19T13:05:18;29.50;99.90
30097;DHT22;16915;51.466;3.610;2022-08-19T13:07:49;29.10;99.90
30097;DHT22;16915;51.466;3.610;2022-08-19T13:10:17;28.40;99.90
30097;DHT22;16915;51.466;3.610;2022-08-19T13:12:45;27.70;99.90
30097;DHT22;16915;51.466;3.610;2022-08-19T13:15:13;27.10;99.90
30097;DHT22;16915;51.466;3.610;2022-08-19T13:17:39;26.70;99.90
30097;DHT22;16915;51.466;3.610;2022-08-19T13:20:09;26.10;99.90
30097;DHT22;16915;51.466;3.610;2022-08-19T13:22:35;25.60;99.90
30097;DHT22;16915;51.466;3.610;2022-08-19T13:25:06;25.60;99.90
30097;DHT22;16915;51.466;3.610;2022-08-19T13:27:36;25.80;99.90
30097;DHT22;16915;51.466;3.610;2022-08-19T13:30:03;25.80;99.90
30097;DHT22;16915;51.466;3.610;2022-08-19T13:32:48;25.60;99.90
30097;DHT22;16915;51.466;3.610;2022-08-19T13:35:33;25.90;99.90
30097;DHT22;16915;51.466;3.610;2022-08-19T13:37:59;26.50;99.90
30097;DHT22;16915;51.466;3.610;2022-08-19T13:40:27;27.20;99.90
30097;DHT22;16915;51.466;3.610;2022-08-19T13:42:54;27.60;99.90
30097;DHT22;16915;51.466;3.610;2022-08-19T13:45:23;27.70;99.90
30097;DHT22;16915;51.466;3.610;2022-08-19T13:47:50;27.60;99.90
30097;DHT22;16915;51.466;3.610;2022-08-19T13:50:22;27.70;99.90
30097;DHT22;16915;51.466;3.610;2022-08-19T13:52:50;27.60;99.90
30097;DHT22;16915;51.466;3.610;2022-08-19T13:55:15;27.70;99.90
30097;DHT22;16915;51.466;3.610;2022-08-19T13:57:42;28.20;99.90
30097;DHT22;16915;51.466;3.610;2022-08-19T14:00:10;28.80;99.90
30097;DHT22;16915;51.466;3.610;2022-08-19T14:02:38;29.70;99.90
30097;DHT22;16915;51.466;3.610;2022-08-19T14:05:06;30.80;99.90
30097;DHT22;16915;51.466;3.610;2022-08-19T14:07:32;32.10;99.90
30097;DHT22;16915;51.466;3.610;2022-08-19T14:09:58;33.40;99.90
30097;DHT22;16915;51.466;3.610;2022-08-19T14:12:24;34.40;98.10
30097;DHT22;16915;51.466;3.610;2022-08-19T14:14:50;35.20;96.50
30097;DHT22;16915;51.466;3.610;2022-08-19T14:17:18;35.70;94.60
30097;DHT22;16915;51.466;3.610;2022-08-19T14:19:44;35.70;95.10
30097;DHT22;16915;51.466;3.610;2022-08-19T14:22:10;35.60;93.90
30097;DHT22;16915;51.466;3.610;2022-08-19T14:24:37;35.30;93.90
30097;DHT22;16915;51.466;3.610;2022-08-19T14:27:05;34.80;95.10
30097;DHT22;16915;51.466;3.610;2022-08-19T14:29:31;34.70;95.00
30097;DHT22;16915;51.466;3.610;2022-08-19T14:31:57;34.30;95.20
30097;DHT22;16915;51.466;3.610;2022-08-19T14:34:25;33.80;95.80
30097;DHT22;16915;51.466;3.610;2022-08-19T14:36:51;33.40;96.40
30097;DHT22;16915;51.466;3.610;2022-08-19T14:39:22;34.10;96.80
30097;DHT22;16915;51.466;3.610;2022-08-19T14:41:48;35.20;96.00
30097;DHT22;16915;51.466;3.610;2022-08-19T14:44:13;36.30;93.20
30097;DHT22;16915;51.466;3.610;2022-08-19T14:46:39;36.80;92.80
30097;DHT22;16915;51.466;3.610;2022-08-19T14:49:05;37.30;92.50
30097;DHT22;16915;51.466;3.610;2022-08-19T14:51:31;36.90;91.70
30097;DHT22;16915;51.466;3.610;2022-08-19T14:53:57;36.20;91.90
30097;DHT22;16915;51.466;3.610;2022-08-19T14:56:26;35.70;92.50
30097;DHT22;16915;51.466;3.610;2022-08-19T14:58:53;35.90;91.90
30097;DHT22;16915;51.466;3.610;2022-08-19T15:01:21;36.10;90.90
30097;DHT22;16915;51.466;3.610;2022-08-19T15:03:49;36.20;90.50
30097;DHT22;16915;51.466;3.610;2022-08-19T15:06:15;36.50;91.00
30097;DHT22;16915;51.466;3.610;2022-08-19T15:08:42;36.80;90.10
30097;DHT22;16915;51.466;3.610;2022-08-19T15:11:17;36.60;88.70
30097;DHT22;16915;51.466;3.610;2022-08-19T15:13:45;35.90;88.80
30097;DHT22;16915;51.466;3.610;2022-08-19T15:16:13;35.50;89.80
30097;DHT22;16915;51.466;3.610;2022-08-19T15:18:40;34.70;90.80
30097;DHT22;16915;51.466;3.610;2022-08-19T15:21:11;33.90;91.50
30097;DHT22;16915;51.466;3.610;2022-08-19T15:23:38;33.30;92.50
30097;DHT22;16915;51.466;3.610;2022-08-19T15:26:04;32.50;92.90
30097;DHT22;16915;51.466;3.610;2022-08-19T15:28:36;31.60;93.70
30097;DHT22;16915;51.466;3.610;2022-08-19T15:31:03;31.20;95.00
30097;DHT22;16915;51.466;3.610;2022-08-19T15:33:36;31.20;94.40
30097;DHT22;16915;51.466;3.610;2022-08-19T15:36:04;31.30;94.50
30097;DHT22;16915;51.466;3.610;2022-08-19T15:38:32;31.10;95.00
30097;DHT22;16915;51.466;3.610;2022-08-19T15:41:02;30.80;95.60
30097;DHT22;16915;51.466;3.610;2022-08-19T15:43:49;30.40;96.20
30097;DHT22;16915;51.466;3.610;2022-08-19T15:46:20;30.50;96.40
30097;DHT22;16915;51.466;3.610;2022-08-19T15:48:47;30.30;96.60
30097;DHT22;16915;51.466;3.610;2022-08-19T15:51:13;30.10;96.70